createdAt,value
2019-03-25T00:00:54.013Z,107.80
2019-03-25T00:03:24.287Z,108.20
2019-03-25T00:05:54.606Z,103.40
2019-03-25T00:08:24.893Z,112.00
2019-03-25T00:10:55.319Z,105.00
2019-03-25T00:13:25.783Z,103.20
2019-03-25T00:15:56.633Z,108.20
2019-03-25T00:18:27.040Z,103.00
2019-03-25T00:20:57.307Z,109.20
2019-03-25T00:23:27.564Z,104.60
2019-03-25T00:25:57.794Z,116.20
2019-03-25T00:28:28.146Z,108.20
2019-03-25T00:30:58.497Z,89.80
2019-03-25T00:33:28.742Z,109.60
2019-03-25T00:35:59.399Z,103.80
2019-03-25T00:38:30.981Z,109.80
2019-03-25T00:41:01.660Z,110.20
2019-03-25T00:43:32.268Z,90.40
2019-03-25T00:46:02.737Z,118.80
2019-03-25T00:48:33.122Z,116.60
2019-03-25T00:51:03.935Z,126.20
2019-03-25T00:53:34.523Z,98.80
2019-03-25T00:56:04.920Z,112.60
2019-03-25T00:58:35.466Z,105.80
2019-03-25T01:01:06.086Z,106.20
2019-03-25T01:03:36.723Z,107.20
2019-03-25T01:06:07.269Z,106.40
2019-03-25T01:08:37.624Z,100.40
2019-03-25T01:11:08.042Z,101.40
2019-03-25T01:13:39.694Z,106.00
2019-03-25T01:16:09.878Z,94.40
2019-03-25T01:18:40.293Z,110.00
2019-03-25T01:21:11.070Z,112.00
2019-03-25T01:23:41.725Z,99.80
2019-03-25T01:26:12.277Z,111.20
2019-03-25T01:28:43.082Z,103.40
2019-03-25T01:31:13.579Z,95.40
2019-03-25T01:33:43.878Z,110.00
2019-03-25T01:36:14.126Z,111.20
2019-03-25T01:38:44.467Z,111.80
2019-03-25T01:41:14.781Z,103.20
2019-03-25T01:43:44.962Z,92.80
2019-03-25T01:46:15.367Z,102.80
2019-03-25T01:48:45.592Z,110.20
2019-03-25T01:51:16.142Z,105.80
2019-03-25T01:53:46.867Z,102.40
2019-03-25T01:56:17.163Z,111.40
2019-03-25T01:58:47.621Z,105.00
2019-03-25T02:01:17.854Z,109.60
2019-03-25T02:03:48.619Z,119.80
2019-03-25T02:06:18.902Z,111.60
2019-03-25T02:08:49.291Z,106.80
2019-03-25T02:11:22.125Z,114.20
2019-03-25T02:13:51.876Z,100.20
2019-03-25T02:16:22.137Z,116.60
2019-03-25T02:18:52.469Z,118.00
2019-03-25T02:21:22.784Z,107.80
2019-03-25T02:23:53.085Z,111.40
2019-03-25T02:26:23.423Z,112.20
2019-03-25T02:28:53.838Z,108.40
2019-03-25T02:31:24.358Z,120.80
2019-03-25T02:33:55.295Z,111.20
2019-03-25T02:36:25.639Z,111.60
2019-03-25T02:38:56.237Z,103.20
2019-03-25T02:41:26.691Z,103.20
2019-03-25T02:43:57.324Z,103.40
2019-03-25T02:46:27.528Z,104.60
2019-03-25T02:48:57.961Z,93.60
2019-03-25T02:51:29.230Z,95.40
2019-03-25T02:53:59.742Z,101.60
2019-03-25T02:56:30.045Z,111.40
2019-03-25T02:59:00.636Z,99.60
2019-03-25T03:01:30.985Z,105.00
2019-03-25T03:04:01.804Z,94.00
2019-03-25T03:06:32.319Z,103.60
2019-03-25T03:09:02.853Z,89.80
2019-03-25T03:11:33.216Z,95.80
2019-03-25T03:14:03.867Z,91.40
2019-03-25T03:16:35.245Z,103.80
2019-03-25T03:19:07.256Z,97.60
2019-03-25T03:21:37.607Z,112.00
2019-03-25T03:24:08.141Z,98.00
2019-03-25T03:26:38.774Z,94.40
2019-03-25T03:29:09.190Z,107.40
2019-03-25T03:31:39.528Z,112.00
2019-03-25T03:34:09.856Z,107.00
2019-03-25T03:36:40.300Z,116.60
2019-03-25T03:39:10.587Z,102.60
2019-03-25T03:41:41.093Z,97.80
2019-03-25T03:44:11.935Z,113.80
2019-03-25T03:46:43.670Z,89.00
2019-03-25T03:49:14.899Z,97.80
2019-03-25T03:51:45.223Z,104.20
2019-03-25T03:54:16.531Z,103.60
2019-03-25T03:56:47.151Z,95.60
2019-03-25T03:59:17.519Z,94.40
2019-03-25T04:01:48.049Z,103.60
2019-03-25T04:04:18.523Z,99.00
2019-03-25T04:06:48.761Z,98.40
2019-03-25T04:09:19.425Z,97.20
2019-03-25T04:11:49.727Z,87.40
2019-03-25T04:14:20.277Z,98.20
2019-03-25T04:16:51.085Z,92.60
2019-03-25T04:19:21.491Z,106.20
2019-03-25T04:21:51.854Z,107.20
2019-03-25T04:24:22.732Z,102.80
2019-03-25T04:26:53.266Z,101.40
2019-03-25T04:29:24.086Z,86.00
2019-03-25T04:31:54.595Z,99.60
2019-03-25T04:34:25.048Z,111.20
2019-03-25T04:36:55.366Z,98.00
2019-03-25T04:39:25.956Z,89.60
2019-03-25T04:41:56.356Z,98.40
2019-03-25T04:44:26.824Z,86.60
2019-03-25T04:46:57.127Z,92.60
2019-03-25T04:49:27.577Z,91.20
2019-03-25T04:51:58.254Z,90.20
2019-03-25T04:54:29.447Z,87.80
2019-03-25T04:56:59.975Z,79.60
2019-03-25T04:59:30.248Z,90.80
2019-03-25T05:02:00.478Z,74.60
2019-03-25T05:04:30.764Z,81.60
2019-03-25T05:07:01.451Z,79.80
2019-03-25T05:09:31.963Z,81.00
2019-03-25T05:12:02.649Z,84.40
2019-03-25T05:14:33.051Z,94.20
2019-03-25T05:17:03.650Z,83.20
2019-03-25T05:19:34.330Z,78.20
2019-03-25T05:22:05.009Z,78.80
2019-03-25T05:24:36.141Z,80.60
2019-03-25T05:27:07.022Z,84.80
2019-03-25T05:29:37.320Z,87.40
2019-03-25T05:32:07.847Z,79.80
2019-03-25T05:34:38.446Z,84.80
2019-03-25T05:37:08.975Z,79.60
2019-03-25T05:39:39.237Z,70.60
2019-03-25T05:42:09.832Z,69.60
2019-03-25T05:44:40.354Z,74.20
2019-03-25T05:47:10.687Z,73.80
2019-03-25T05:49:41.123Z,70.80
2019-03-25T05:52:11.775Z,65.80
2019-03-25T05:54:42.653Z,68.80
2019-03-25T05:57:13.047Z,62.60
2019-03-25T05:59:43.520Z,64.40
2019-03-25T06:02:13.834Z,64.80
2019-03-25T06:04:44.382Z,66.40
2019-03-25T06:07:14.881Z,68.80
2019-03-25T06:09:45.274Z,70.20
2019-03-25T06:12:15.543Z,72.80
2019-03-25T06:14:46.949Z,69.40
2019-03-25T06:17:17.687Z,64.20
2019-03-25T06:19:47.988Z,59.60
2019-03-25T06:22:18.256Z,56.40
2019-03-25T06:24:48.614Z,61.20
2019-03-25T06:27:19.114Z,64.40
2019-03-25T06:29:49.522Z,58.00
2019-03-25T06:32:19.947Z,55.00
2019-03-25T06:34:50.252Z,63.00
2019-03-25T06:37:20.643Z,57.00
2019-03-25T06:39:50.891Z,54.20
2019-03-25T06:42:21.393Z,44.40
2019-03-25T06:44:52.010Z,52.20
2019-03-25T06:47:24.351Z,51.80
2019-03-25T06:49:54.991Z,52.20
2019-03-25T06:52:25.444Z,52.00
2019-03-25T06:54:55.796Z,50.00
2019-03-25T06:57:26.544Z,48.20
2019-03-25T06:59:57.125Z,43.40
2019-03-25T07:02:27.944Z,52.00
2019-03-25T07:04:58.225Z,38.80
2019-03-25T07:07:28.758Z,46.00
2019-03-25T07:09:59.312Z,47.00
2019-03-25T07:12:29.922Z,46.00
2019-03-25T07:15:00.751Z,48.40
2019-03-25T07:17:31.175Z,47.20
2019-03-25T07:20:01.773Z,46.60
2019-03-25T07:22:32.188Z,46.80
2019-03-25T07:25:02.530Z,43.60
2019-03-25T07:27:36.999Z,43.40
2019-03-25T07:30:05.715Z,41.80
2019-03-25T07:32:37.959Z,41.80
2019-03-25T07:35:08.769Z,47.60
2019-03-25T07:37:39.477Z,45.00
2019-03-25T07:40:11.637Z,39.40
2019-03-25T07:42:43.157Z,46.00
2019-03-25T07:45:14.221Z,40.60
2019-03-25T07:47:44.660Z,36.80
2019-03-25T07:50:15.239Z,39.80
2019-03-25T07:52:45.559Z,34.60
2019-03-25T07:55:16.248Z,39.00
2019-03-25T07:57:48.622Z,45.80
2019-03-25T08:00:19.368Z,47.00
2019-03-25T08:02:50.113Z,46.20
2019-03-25T08:05:20.722Z,42.20
2019-03-25T08:07:51.658Z,33.80
2019-03-25T08:10:35.387Z,47.60
2019-03-25T08:13:05.915Z,47.20
2019-03-25T08:15:37.363Z,47.40
2019-03-25T08:18:08.891Z,47.00
2019-03-25T08:20:39.364Z,39.20
2019-03-25T08:23:09.998Z,43.60
2019-03-25T08:25:40.390Z,44.20
2019-03-25T08:28:10.910Z,40.40
2019-03-25T08:30:41.083Z,43.80
2019-03-25T08:33:11.538Z,43.60
2019-03-25T08:35:41.854Z,41.60
2019-03-25T08:38:12.413Z,38.40
2019-03-25T08:40:42.837Z,35.80
2019-03-25T08:43:13.447Z,42.20
2019-03-25T08:45:44.256Z,42.60
2019-03-25T08:48:14.790Z,38.00
2019-03-25T08:50:45.370Z,42.80
2019-03-25T08:53:16.227Z,44.60
2019-03-25T08:55:46.504Z,37.60
2019-03-25T08:58:16.977Z,44.60
2019-03-25T09:00:47.364Z,39.40
2019-03-25T09:03:18.014Z,44.40
2019-03-25T09:05:48.693Z,43.60
2019-03-25T09:08:19.140Z,44.20
2019-03-25T09:10:49.477Z,43.40
2019-03-25T09:13:19.916Z,47.20
2019-03-25T09:15:51.034Z,43.00
2019-03-25T09:18:21.412Z,46.60
2019-03-25T09:20:52.003Z,38.00
2019-03-25T09:23:22.850Z,42.60
2019-03-25T09:25:53.706Z,45.80
2019-03-25T09:28:24.749Z,46.40
2019-03-25T09:31:23.156Z,49.20
2019-03-25T09:33:53.711Z,45.20
2019-03-25T09:36:24.195Z,42.80
2019-03-25T09:38:55.106Z,44.60
2019-03-25T09:41:25.800Z,48.80
2019-03-25T09:43:55.962Z,46.60
2019-03-25T09:46:27.105Z,47.40
2019-03-25T09:48:57.658Z,45.40
2019-03-25T09:51:28.055Z,50.40
2019-03-25T09:53:58.459Z,48.40
2019-03-25T09:56:28.794Z,41.80
2019-03-25T09:58:59.285Z,44.80
2019-03-25T10:01:30.193Z,42.00
2019-03-25T10:04:00.486Z,39.20
2019-03-25T10:06:30.948Z,44.00
2019-03-25T10:09:01.504Z,46.80
2019-03-25T10:11:37.175Z,48.60
2019-03-25T10:14:08.068Z,49.20
2019-03-25T10:16:39.199Z,50.60
2019-03-25T10:19:10.360Z,50.60
2019-03-25T10:21:41.234Z,50.80
2019-03-25T10:24:11.605Z,46.80
2019-03-25T10:26:42.323Z,46.60
2019-03-25T10:29:12.887Z,49.00
2019-03-25T10:31:43.426Z,48.20
2019-03-25T10:34:14.998Z,50.20
2019-03-25T10:36:45.670Z,47.00
2019-03-25T10:39:17.085Z,47.60
2019-03-25T10:41:47.698Z,45.00
2019-03-25T10:44:17.870Z,45.40
2019-03-25T10:46:48.520Z,48.20
2019-03-25T10:49:19.012Z,50.20
2019-03-25T10:51:50.178Z,48.60
2019-03-25T10:54:20.808Z,47.20
2019-03-25T10:56:51.384Z,43.80
2019-03-25T10:59:21.663Z,51.00
2019-03-25T11:01:52.284Z,43.00
2019-03-25T11:04:23.535Z,45.40
2019-03-25T11:06:54.199Z,48.00
2019-03-25T11:09:24.864Z,45.40
2019-03-25T11:11:55.713Z,47.40
2019-03-25T11:14:26.103Z,47.60
2019-03-25T11:16:56.578Z,46.20
2019-03-25T11:19:27.132Z,48.20
2019-03-25T11:21:58.801Z,46.00
2019-03-25T11:24:29.093Z,47.80
2019-03-25T11:26:59.630Z,48.40
2019-03-25T11:29:30.120Z,48.40
2019-03-25T11:32:00.668Z,51.00
2019-03-25T11:34:31.344Z,46.60
2019-03-25T11:37:02.565Z,44.00
2019-03-25T11:39:32.952Z,49.80
2019-03-25T11:42:03.589Z,46.40
2019-03-25T11:44:34.359Z,50.60
2019-03-25T11:47:04.871Z,48.40
2019-03-25T11:49:35.856Z,44.20
2019-03-25T11:52:14.102Z,47.20
2019-03-25T11:54:44.612Z,44.80
2019-03-25T11:57:15.073Z,50.80
2019-03-25T11:59:45.404Z,52.60
2019-03-25T12:02:17.700Z,45.40
2019-03-25T12:04:47.696Z,51.20
2019-03-25T12:07:18.537Z,52.80
2019-03-25T12:09:48.896Z,46.80
2019-03-25T12:12:19.348Z,51.80
2019-03-25T12:14:50.858Z,50.00
2019-03-25T12:17:21.291Z,52.60
2019-03-25T12:19:51.715Z,53.80
2019-03-25T12:22:22.120Z,55.00
2019-03-25T12:24:52.849Z,60.40
2019-03-25T12:27:23.437Z,57.00
2019-03-25T12:29:53.974Z,63.20
2019-03-25T12:32:24.158Z,59.80
2019-03-25T12:34:54.479Z,56.60
2019-03-25T12:37:28.798Z,53.00
2019-03-25T12:39:59.334Z,61.40
2019-03-25T12:42:29.508Z,56.20
2019-03-25T12:44:59.772Z,63.80
2019-03-25T12:47:29.933Z,63.40
2019-03-25T12:50:00.439Z,77.00
2019-03-25T12:52:30.809Z,81.20
2019-03-25T12:55:01.422Z,82.80
2019-03-25T12:57:31.777Z,85.80
2019-03-25T13:00:01.988Z,78.80
2019-03-25T13:02:32.373Z,75.00
2019-03-25T13:05:02.614Z,69.20
2019-03-25T13:07:33.501Z,71.40
2019-03-25T13:10:03.703Z,70.00
2019-03-25T13:12:34.048Z,66.20
2019-03-25T13:15:04.763Z,73.60
2019-03-25T13:17:35.598Z,73.40
2019-03-25T13:20:06.181Z,69.60
2019-03-25T13:22:36.850Z,67.20
2019-03-25T13:25:07.233Z,67.20
2019-03-25T13:27:38.520Z,67.40
2019-03-25T13:30:09.078Z,65.40
2019-03-25T13:32:39.217Z,65.80
2019-03-25T13:35:09.539Z,64.40
2019-03-25T13:37:40.586Z,65.20
2019-03-25T13:40:11.047Z,65.00
2019-03-25T13:42:41.535Z,64.80
2019-03-25T13:45:12.215Z,69.40
2019-03-25T13:47:42.742Z,69.80
2019-03-25T13:50:13.061Z,74.20
2019-03-25T13:52:43.590Z,67.20
2019-03-25T13:55:13.969Z,69.00
2019-03-25T13:57:44.398Z,72.00
2019-03-25T14:00:14.891Z,74.60
2019-03-25T14:02:45.477Z,76.80
2019-03-25T14:05:15.741Z,75.40
2019-03-25T14:07:46.664Z,79.00
2019-03-25T14:10:17.186Z,84.40
2019-03-25T14:12:47.586Z,78.80
2019-03-25T14:15:17.728Z,81.60
2019-03-25T14:17:48.635Z,82.60
2019-03-25T14:20:19.101Z,81.00
2019-03-25T14:22:50.015Z,92.60
2019-03-25T14:25:20.211Z,83.80
2019-03-25T14:27:50.685Z,88.80
2019-03-25T14:30:21.096Z,78.00
2019-03-25T14:32:51.422Z,85.00
2019-03-25T14:35:21.728Z,86.80
2019-03-25T14:37:53.146Z,85.00
2019-03-25T14:40:25.492Z,80.00
2019-03-25T14:42:55.653Z,84.00
2019-03-25T14:45:26.700Z,87.40
2019-03-25T14:47:57.362Z,81.40
2019-03-25T14:50:28.215Z,83.20
2019-03-25T14:52:58.744Z,81.00
2019-03-25T14:55:29.080Z,81.00
2019-03-25T14:57:59.298Z,82.80
2019-03-25T15:00:29.563Z,79.40
2019-03-25T15:02:59.978Z,80.40
2019-03-25T15:05:30.286Z,74.00
2019-03-25T15:08:01.155Z,81.00
2019-03-25T15:10:31.650Z,90.40
2019-03-25T15:13:01.831Z,83.40
2019-03-25T15:15:32.413Z,84.00
2019-03-25T15:18:03.330Z,87.60
2019-03-25T15:20:34.470Z,89.00
2019-03-25T15:23:04.686Z,94.60
2019-03-25T15:25:35.032Z,87.80
2019-03-25T15:28:05.336Z,101.00
2019-03-25T15:30:36.473Z,92.40
2019-03-25T15:33:06.980Z,98.20
2019-03-25T15:35:37.288Z,106.40
2019-03-25T15:38:07.490Z,102.00
2019-03-25T15:40:37.997Z,105.80
2019-03-25T15:43:08.462Z,106.00
2019-03-25T15:45:38.688Z,93.20
2019-03-25T15:48:09.256Z,103.20
2019-03-25T15:50:39.731Z,106.20
2019-03-25T15:53:10.329Z,107.20
2019-03-25T15:55:41.126Z,102.80
2019-03-25T15:58:11.357Z,97.80
2019-03-25T16:00:47.506Z,89.60
2019-03-25T16:03:14.081Z,99.00
2019-03-25T16:05:44.437Z,90.20
2019-03-25T16:08:14.879Z,88.80
2019-03-25T16:10:45.249Z,88.40
2019-03-25T16:13:15.751Z,86.60
2019-03-25T16:15:46.164Z,83.60
2019-03-25T16:18:35.604Z,82.80
2019-03-25T16:21:05.866Z,82.60
2019-03-25T16:23:36.213Z,82.80
2019-03-25T16:26:06.539Z,81.00
2019-03-25T16:28:36.674Z,82.60
2019-03-25T16:31:08.421Z,84.60
2019-03-25T16:33:38.803Z,81.20
2019-03-25T16:36:09.138Z,82.20
2019-03-25T16:38:39.479Z,81.40
2019-03-25T16:41:10.145Z,78.60
2019-03-25T16:43:40.303Z,78.40
2019-03-25T16:46:10.674Z,78.20
2019-03-25T16:48:41.043Z,80.60
2019-03-25T16:51:11.376Z,79.40
2019-03-25T16:53:42.337Z,78.80
2019-03-25T16:56:12.890Z,79.40
2019-03-25T16:58:43.421Z,74.60
2019-03-25T17:01:14.313Z,77.80
2019-03-25T17:03:44.710Z,81.60
2019-03-25T17:06:15.067Z,76.40
2019-03-25T17:08:45.741Z,77.40
2019-03-25T17:11:16.074Z,77.40
2019-03-25T17:13:46.257Z,78.40
2019-03-25T17:16:16.999Z,72.00
2019-03-25T17:18:47.828Z,78.80
2019-03-25T17:21:18.637Z,74.00
2019-03-25T17:23:49.190Z,73.60
2019-03-25T17:26:19.796Z,76.80
2019-03-25T17:28:50.151Z,75.80
2019-03-25T17:31:21.333Z,71.00
2019-03-25T17:33:51.680Z,76.00
2019-03-25T17:36:22.154Z,74.40
2019-03-25T17:38:52.951Z,72.00
2019-03-25T17:41:23.805Z,69.60
2019-03-25T17:43:54.381Z,72.80
2019-03-25T17:46:25.102Z,74.00
2019-03-25T17:48:55.915Z,77.40
2019-03-25T17:51:26.769Z,72.20
2019-03-25T17:53:58.037Z,73.20
2019-03-25T17:56:28.784Z,75.20
2019-03-25T17:58:59.873Z,69.40
2019-03-25T18:01:35.870Z,75.20
2019-03-25T18:04:06.414Z,74.20
2019-03-25T18:06:37.925Z,71.80
2019-03-25T18:09:11.068Z,70.80
2019-03-25T18:11:41.311Z,73.00
2019-03-25T18:14:11.942Z,72.20
2019-03-25T18:16:42.203Z,67.00
2019-03-25T18:19:12.693Z,74.40
2019-03-25T18:21:43.046Z,65.40
2019-03-25T18:24:13.662Z,72.40
2019-03-25T18:26:44.030Z,76.80
2019-03-25T18:29:16.907Z,73.20
2019-03-25T18:31:46.295Z,73.40
2019-03-25T18:34:16.870Z,73.20
2019-03-25T18:36:47.361Z,70.20
2019-03-25T18:39:17.597Z,74.40
2019-03-25T18:41:48.056Z,74.40
2019-03-25T18:44:18.646Z,74.00
2019-03-25T18:46:49.233Z,76.20
2019-03-25T18:49:19.757Z,67.00
2019-03-25T18:51:50.123Z,68.60
2019-03-25T18:54:20.487Z,70.40
2019-03-25T18:56:50.942Z,74.00
2019-03-25T18:59:21.507Z,69.20
2019-03-25T19:01:54.724Z,72.60
2019-03-25T19:04:27.147Z,68.60
2019-03-25T19:06:56.593Z,65.80
2019-03-25T19:09:27.102Z,68.40
2019-03-25T19:11:57.626Z,70.80
2019-03-25T19:14:32.180Z,71.40
2019-03-25T19:17:05.175Z,72.20
2019-03-25T19:19:34.711Z,68.60
2019-03-25T19:22:05.545Z,68.20
2019-03-25T19:24:36.133Z,70.20
2019-03-25T19:27:06.623Z,70.40
2019-03-25T19:29:37.050Z,69.80
2019-03-25T19:32:07.338Z,65.60
2019-03-25T19:34:37.808Z,70.40
2019-03-25T19:37:08.127Z,70.40
2019-03-25T19:39:38.269Z,74.80
2019-03-25T19:42:09.549Z,78.40
2019-03-25T19:44:39.766Z,71.60
2019-03-25T19:47:10.388Z,72.80
2019-03-25T19:49:40.761Z,73.40
2019-03-25T19:52:10.971Z,70.80
2019-03-25T19:54:41.556Z,72.40
2019-03-25T19:57:12.905Z,71.20
2019-03-25T19:59:43.242Z,68.80
2019-03-25T20:02:19.073Z,72.80
2019-03-25T20:04:46.082Z,70.20
2019-03-25T20:07:16.515Z,71.40
2019-03-25T20:09:47.139Z,73.80
2019-03-25T20:12:17.516Z,75.00
2019-03-25T20:14:48.177Z,78.40
2019-03-25T20:17:19.010Z,75.40
2019-03-25T20:19:49.665Z,73.60
2019-03-25T20:22:20.166Z,81.80
2019-03-25T20:24:50.692Z,76.40
2019-03-25T20:27:21.237Z,75.20
2019-03-25T20:29:51.518Z,75.40
2019-03-25T20:32:31.206Z,75.80
2019-03-25T20:34:54.984Z,71.40
2019-03-25T20:37:25.453Z,80.60
2019-03-25T20:39:55.851Z,82.40
2019-03-25T20:42:26.327Z,72.60
2019-03-25T20:44:57.082Z,75.80
2019-03-25T20:47:27.617Z,71.00
2019-03-25T20:49:58.153Z,71.40
2019-03-25T20:52:28.934Z,68.80
2019-03-25T20:54:59.602Z,71.80
2019-03-25T20:57:30.190Z,73.20
2019-03-25T21:00:00.503Z,76.60
2019-03-25T21:02:30.917Z,70.20
2019-03-25T21:05:01.240Z,66.20
2019-03-25T21:07:32.715Z,73.00
2019-03-25T21:10:03.523Z,70.20
2019-03-25T21:12:38.423Z,71.20
2019-03-25T21:15:08.216Z,64.40
2019-03-25T21:17:38.877Z,69.00
2019-03-25T21:20:10.472Z,69.00
2019-03-25T21:22:41.392Z,70.00
2019-03-25T21:25:12.155Z,71.00
2019-03-25T21:27:42.601Z,71.00
2019-03-25T21:30:13.189Z,73.20
2019-03-25T21:32:43.616Z,64.20
2019-03-25T21:35:14.175Z,68.80
2019-03-25T21:37:44.733Z,72.40
2019-03-25T21:40:15.448Z,75.80
2019-03-25T21:42:46.006Z,76.00
2019-03-25T21:45:16.475Z,74.60
2019-03-25T21:47:47.052Z,76.80
2019-03-25T21:50:17.562Z,77.00
2019-03-25T21:52:48.108Z,75.00
2019-03-25T21:55:18.847Z,76.60
2019-03-25T21:57:49.322Z,81.80
2019-03-25T22:00:19.899Z,79.20
2019-03-25T22:02:50.181Z,80.20
2019-03-25T22:05:20.901Z,84.20
2019-03-25T22:07:51.238Z,90.80
2019-03-25T22:10:22.028Z,91.60
2019-03-25T22:12:52.503Z,87.20
2019-03-25T22:15:23.285Z,86.60
2019-03-25T22:17:54.140Z,86.40
2019-03-25T22:20:24.546Z,89.20
2019-03-25T22:22:54.814Z,87.20
2019-03-25T22:25:25.419Z,96.20
2019-03-25T22:27:55.529Z,89.00
2019-03-25T22:30:26.364Z,87.80
2019-03-25T22:32:56.709Z,93.20
2019-03-25T22:35:27.012Z,88.00
2019-03-25T22:37:57.380Z,90.40
2019-03-25T22:40:28.113Z,95.60
2019-03-25T22:42:58.359Z,93.00
2019-03-25T22:45:29.568Z,91.00
2019-03-25T22:48:00.058Z,85.60
2019-03-25T22:50:31.379Z,89.60
2019-03-25T22:53:01.868Z,93.40
2019-03-25T22:55:32.491Z,92.20
2019-03-25T22:58:02.909Z,88.20
2019-03-25T23:00:41.199Z,92.20
2019-03-25T23:03:12.086Z,89.80
2019-03-25T23:05:42.619Z,87.00
2019-03-25T23:08:13.258Z,90.20
2019-03-25T23:10:43.993Z,91.40
2019-03-25T23:13:14.610Z,87.20
2019-03-25T23:15:45.558Z,90.40
2019-03-25T23:18:15.920Z,88.20
2019-03-25T23:20:46.536Z,90.40
2019-03-25T23:23:16.840Z,91.00
2019-03-25T23:25:47.691Z,87.40
2019-03-25T23:28:18.006Z,81.60
2019-03-25T23:30:48.746Z,87.80
2019-03-25T23:33:19.078Z,89.80
2019-03-25T23:35:49.872Z,86.40
2019-03-25T23:38:20.303Z,86.60
2019-03-25T23:40:51.789Z,92.20
2019-03-25T23:43:22.371Z,90.40
2019-03-25T23:45:53.028Z,91.20
2019-03-25T23:48:23.639Z,89.00
2019-03-25T23:50:55.101Z,92.00
2019-03-25T23:53:25.812Z,86.60
2019-03-25T23:55:56.095Z,87.80
2019-03-25T23:58:26.456Z,83.20
